Time;durP1;ratioP1;P1;durP2;ratioP2;P2;SDS_P1;SDS_P2;PMS_P1;PMS_P2;Temp;Humidity;BMP_temperature;BMP_pressure;BME280_temperature;BME280_humidity;BME280_pressure;Samples;Min_cycle;Max_cycle;Signal;HPM_P1;HPM_P2
2022/05/22 00:02:01;;;;;;;13.73;5.65;;;;;;;13.19;78.05;101903.38;4969681;28;20015;-55
2022/05/22 00:04:26;;;;;;;13.05;5.75;;;;;;;13.23;77.86;101892.22;4974142;28;20037;-55
2022/05/22 00:06:52;;;;;;;13.90;5.47;;;;;;;13.15;77.94;101900.16;4966898;28;20034;-55
2022/05/22 00:09:17;;;;;;;13.10;6.15;;;;;;;13.15;78.18;101894.81;4968943;28;20066;-53
2022/05/22 00:11:43;;;;;;;20.80;5.65;;;;;;;13.24;77.97;101893.03;4972612;28;20038;-52
2022/05/22 00:14:11;;;;;;;12.95;5.10;;;;;;;13.10;77.86;101888.31;4969264;28;20085;-54
2022/05/22 00:16:41;;;;;;;12.50;6.03;;;;;;;13.16;78.16;101885.81;4979420;28;20518;-55
2022/05/22 00:19:06;;;;;;;;;;;;;;;13.30;78.18;101873.75;4965473;28;20026;-56
2022/05/22 00:21:31;;;;;;;15.88;5.22;;;;;;;13.17;78.20;101882.19;4968482;28;20425;-53
2022/05/22 00:23:57;;;;;;;12.45;5.38;;;;;;;13.12;78.03;101873.81;4972585;28;20739;-54
2022/05/22 00:26:22;;;;;;;12.48;5.40;;;;;;;13.10;78.20;101865.16;4973565;28;20412;-54
2022/05/22 00:28:48;;;;;;;10.15;4.82;;;;;;;13.09;78.50;101874.13;4970544;28;20018;-54
2022/05/22 00:31:13;;;;;;;9.82;5.10;;;;;;;13.03;78.15;101866.78;4973931;28;20050;-55
2022/05/22 00:33:39;;;;;;;11.13;5.32;;;;;;;12.95;78.48;101872.91;4969067;28;20109;-55
2022/05/22 00:36:04;;;;;;;11.80;5.20;;;;;;;12.98;78.10;101871.75;4966271;28;20038;-52
2022/05/22 00:38:29;;;;;;;13.13;5.45;;;;;;;12.96;78.25;101868.41;4970582;28;20037;-54
2022/05/22 00:40:55;;;;;;;9.25;4.85;;;;;;;12.94;78.40;101873.06;4973856;28;20547;-54
2022/05/22 00:43:41;;;;;;;12.30;6.03;;;;;;;12.98;78.89;101867.25;4967368;28;20062;-53
2022/05/22 00:46:11;;;;;;;14.70;5.68;;;;;;;12.92;78.38;101867.91;4967530;28;20030;-53
2022/05/22 00:48:36;;;;;;;14.82;5.47;;;;;;;12.94;78.60;101857.06;4966842;28;20050;-55
2022/05/22 00:51:18;;;;;;;11.23;4.97;;;;;;;12.91;78.70;101868.91;4967997;28;20472;-52
2022/05/22 00:53:52;;;;;;;7.78;4.50;;;;;;;12.90;78.56;101869.88;4964606;28;20086;-55
2022/05/22 00:56:23;;;;;;;9.40;4.65;;;;;;;12.84;78.53;101859.03;4968782;28;20085;-54
2022/05/22 00:58:53;;;;;;;11.63;5.00;;;;;;;12.78;79.10;101849.84;4968110;28;20037;-51
2022/05/22 01:01:18;;;;;;;9.60;4.57;;;;;;;12.79;79.18;101834.69;4966413;28;20065;-54
2022/05/22 01:03:44;;;;;;;12.25;4.90;;;;;;;12.75;79.00;101844.03;4967627;28;20058;-52
2022/05/22 01:06:16;;;;;;;11.82;5.10;;;;;;;12.57;79.11;101847.59;4966736;28;20026;-55
2022/05/22 01:08:42;;;;;;;11.50;5.57;;;;;;;12.50;78.79;101853.72;4963285;28;20552;-54
2022/05/22 01:11:12;;;;;;;12.43;5.47;;;;;;;12.42;78.95;101854.47;4968374;28;20027;-55
2022/05/22 01:13:48;;;;;;;10.25;5.25;;;;;;;12.40;79.50;101861.81;4966668;28;20054;-55
2022/05/22 01:16:14;;;;;;;11.68;5.45;;;;;;;12.35;79.45;101866.78;4967654;28;20023;-53
2022/05/22 01:18:50;;;;;;;11.68;5.65;;;;;;;12.29;79.21;101862.06;4970049;28;20026;-56
2022/05/22 01:21:29;;;;;;;12.73;6.13;;;;;;;12.31;79.64;101873.41;4968276;28;20025;-56
2022/05/22 01:23:54;;;;;;;12.13;5.75;;;;;;;12.37;79.83;101865.63;4973326;28;20495;-55
2022/05/22 01:26:21;;;;;;;10.73;5.25;;;;;;;12.37;79.88;101846.13;4965218;28;20046;-54
2022/05/22 01:28:47;;;;;;;12.00;5.28;;;;;;;12.40;79.48;101845.81;4966364;28;20031;-54
2022/05/22 01:31:13;;;;;;;13.05;5.82;;;;;;;12.41;79.73;101837.66;4969432;28;20114;-52
2022/05/22 01:33:40;;;;;;;11.45;5.80;;;;;;;12.38;79.40;101835.31;4969178;28;20030;-53
2022/05/22 01:36:06;;;;;;;11.40;5.60;;;;;;;12.31;79.20;101838.78;4967609;28;20113;-53
2022/05/22 01:38:33;;;;;;;14.30;5.45;;;;;;;12.21;79.13;101840.72;4964975;28;20122;-54
2022/05/22 01:40:58;;;;;;;12.32;5.55;;;;;;;12.13;79.34;101833.50;4965545;28;20424;-55
2022/05/22 01:43:24;;;;;;;12.55;5.93;;;;;;;12.19;79.56;101832.06;4973013;28;20270;-56
2022/05/22 01:45:49;;;;;;;11.07;5.43;;;;;;;12.25;79.37;101826.94;4966943;28;20117;-53
2022/05/22 01:48:15;;;;;;;11.38;5.97;;;;;;;12.26;79.87;101827.78;4975491;28;20129;-54
2022/05/22 01:50:43;;;;;;;14.88;6.47;;;;;;;12.25;80.02;101826.94;4968639;28;20061;-54
2022/05/22 01:53:08;;;;;;;11.32;5.80;;;;;;;12.26;80.10;101833.09;4966868;28;20109;-53
2022/05/22 01:55:34;;;;;;;12.25;5.57;;;;;;;12.18;80.05;101833.88;4971499;28;20470;-54
2022/05/22 01:57:59;;;;;;;10.00;5.30;;;;;;;12.21;79.70;101836.22;4972716;28;20110;-53
2022/05/22 02:00:26;;;;;;;9.80;5.60;;;;;;;12.24;79.89;101829.75;4968820;28;20501;-55
2022/05/22 02:02:55;;;;;;;14.05;6.03;;;;;;;12.20;80.28;101831.91;4971517;28;20033;-54
2022/05/22 02:05:21;;;;;;;10.43;5.82;;;;;;;12.25;80.15;101823.44;4962238;28;20075;-55
2022/05/22 02:10:31;;;;;;;11.07;4.45;;;;;;;12.14;79.77;101823.69;4971805;28;20647;-53
2022/05/22 02:12:57;;;;;;;8.32;4.22;;;;;;;12.06;80.00;101813.81;4974017;28;20049;-55
2022/05/22 02:15:23;;;;;;;11.48;4.75;;;;;;;12.02;80.02;101813.28;4969233;28;20058;-54
2022/05/22 02:17:48;;;;;;;10.25;5.28;;;;;;;11.98;79.90;101811.94;4970480;28;20474;-54
2022/05/22 02:20:14;;;;;;;12.32;5.55;;;;;;;12.04;79.89;101808.66;4980685;28;20451;-55
2022/05/22 02:22:45;;;;;;;11.70;5.65;;;;;;;12.02;80.05;101812.47;4970764;28;20042;-56
2022/05/22 02:25:17;;;;;;;11.75;5.95;;;;;;;11.99;80.13;101813.63;4975289;28;20023;-55
2022/05/22 02:27:43;;;;;;;14.93;6.07;;;;;;;12.05;80.62;101804.16;4973828;28;20115;-55
2022/05/22 02:30:11;;;;;;;16.10;6.70;;;;;;;12.01;80.44;101808.97;4968393;28;20050;-55
2022/05/22 02:32:39;;;;;;;17.27;6.40;;;;;;;11.93;80.68;101803.59;4967974;28;20033;-55
2022/05/22 02:35:07;;;;;;;13.93;6.30;;;;;;;11.97;80.74;101798.78;4972966;28;20026;-54
2022/05/22 02:37:40;;;;;;;13.15;6.63;;;;;;;11.92;80.42;101795.78;4972734;28;20081;-55
2022/05/22 02:40:06;;;;;;;10.13;5.93;;;;;;;11.91;80.76;101792.28;4971413;28;20027;-56
2022/05/22 02:42:31;;;;;;;14.85;6.30;;;;;;;11.85;80.48;101787.53;4969643;28;20154;-55
2022/05/22 02:44:56;;;;;;;16.55;6.60;;;;;;;11.88;80.83;101779.28;4969619;28;20482;-56
2022/05/22 02:47:22;;;;;;;13.00;7.20;;;;;;;11.83;80.74;101775.38;4971612;28;20038;-55
2022/05/22 02:49:47;;;;;;;13.73;6.57;;;;;;;11.85;80.66;101776.91;4970522;28;20026;-56
2022/05/22 02:52:12;;;;;;;15.23;6.63;;;;;;;11.77;80.57;101780.31;4974594;28;20055;-55
2022/05/22 02:54:37;;;;;;;14.85;7.18;;;;;;;11.72;80.78;101784.44;4975964;28;20034;-56
2022/05/22 02:57:04;;;;;;;13.88;7.40;;;;;;;11.64;80.79;101789.72;4968310;28;20035;-55
2022/05/22 02:59:32;;;;;;;17.15;7.63;;;;;;;11.55;80.72;101785.28;4971401;28;20428;-56
2022/05/22 03:01:59;;;;;;;15.18;7.53;;;;;;;11.53;80.76;101784.59;4974769;28;20019;-55
2022/05/22 03:04:24;;;;;;;13.70;6.90;;;;;;;11.52;81.13;101789.09;4973740;28;20054;-56
2022/05/22 03:06:49;;;;;;;17.58;7.30;;;;;;;11.53;81.13;101781.94;4977480;28;20073;-55
2022/05/22 03:09:16;;;;;;;17.65;7.00;;;;;;;11.49;81.18;101784.91;4970456;28;20444;-55
2022/05/22 03:11:42;;;;;;;14.63;7.22;;;;;;;11.50;81.47;101777.78;4969379;28;20471;-55
2022/05/22 03:14:09;;;;;;;10.82;7.72;;;;;;;11.52;81.12;101780.28;4970065;28;20106;-55
2022/05/22 03:16:35;;;;;;;14.63;6.50;;;;;;;11.48;81.60;101777.09;4970987;28;20041;-53
2022/05/22 03:19:00;;;;;;;15.05;7.43;;;;;;;11.50;81.42;101761.81;4968431;28;20026;-52
2022/05/22 03:21:29;;;;;;;15.82;7.30;;;;;;;11.52;81.34;101765.16;4969453;28;20061;-56
2022/05/22 03:23:55;;;;;;;13.32;6.82;;;;;;;11.48;81.58;101758.47;4965686;28;20041;-53
2022/05/22 03:26:20;;;;;;;17.05;7.25;;;;;;;11.49;81.35;101760.97;4968076;28;20142;-53
2022/05/22 03:28:46;;;;;;;17.17;6.85;;;;;;;11.44;81.44;101767.75;4971683;28;20022;-54
2022/05/22 03:31:11;;;;;;;17.55;6.95;;;;;;;11.43;81.72;101756.28;4972857;28;20023;-56
2022/05/22 03:33:37;;;;;;;18.92;7.70;;;;;;;11.41;81.96;101758.25;4972228;28;20502;-55
2022/05/22 03:36:04;;;;;;;12.65;6.53;;;;;;;11.39;81.87;101752.25;4968574;28;20050;-56
2022/05/22 03:38:29;;;;;;;16.48;6.72;;;;;;;11.36;81.75;101755.22;4970036;28;20483;-56
2022/05/22 03:40:55;;;;;;;13.43;6.20;;;;;;;11.32;81.94;101758.34;4971516;28;20107;-54
2022/05/22 03:43:20;;;;;;;13.10;6.10;;;;;;;11.21;81.61;101748.75;4970387;28;20468;-53
2022/05/22 03:45:46;;;;;;;10.23;5.75;;;;;;;11.18;81.55;101747.25;4971928;28;20053;-54
2022/05/22 03:48:11;;;;;;;9.45;5.60;;;;;;;11.20;81.98;101754.22;4964722;28;20101;-54
2022/05/22 03:50:37;;;;;;;13.00;6.50;;;;;;;11.10;81.61;101733.06;4968551;28;20023;-52
2022/05/22 03:53:04;;;;;;;14.05;7.22;;;;;;;11.21;82.10;101750.59;4971375;28;20044;-52
2022/05/22 03:55:30;;;;;;;10.35;6.35;;;;;;;11.09;81.58;101747.34;4968872;28;20413;-53
2022/05/22 03:57:56;;;;;;;15.10;6.68;;;;;;;11.03;81.73;101753.25;4974623;28;20027;-52
2022/05/22 04:00:23;;;;;;;6.70;4.47;;;;;;;10.90;81.54;101758.09;4972443;28;20080;-54
2022/05/22 04:02:49;;;;;;;9.43;5.13;;;;;;;10.92;81.66;101754.28;4968487;28;20470;-55
2022/05/22 04:05:15;;;;;;;8.02;5.75;;;;;;;10.93;82.00;101755.13;4974182;28;20041;-55
2022/05/22 04:07:42;;;;;;;13.30;6.00;;;;;;;10.96;82.23;101752.16;4974549;28;20030;-55
2022/05/22 04:10:09;;;;;;;10.20;5.47;;;;;;;10.94;82.20;101754.97;4973432;28;20074;-55
2022/05/22 04:12:35;;;;;;;11.07;5.72;;;;;;;10.97;81.83;101749.34;4972880;28;20031;-54
2022/05/22 04:15:01;;;;;;;6.63;4.30;;;;;;;10.95;81.98;101748.66;4972644;28;20030;-54
2022/05/22 04:17:26;;;;;;;6.40;4.50;;;;;;;10.95;82.08;101745.19;4965652;28;20033;-52
2022/05/22 04:19:52;;;;;;;5.32;3.65;;;;;;;10.88;81.95;101746.78;4969717;28;20053;-55
2022/05/22 04:22:17;;;;;;;9.75;4.43;;;;;;;10.77;81.43;101738.03;4971721;28;20031;-52
2022/05/22 04:27:27;;;;;;;7.25;5.40;;;;;;;10.80;81.96;101735.09;4968062;28;20180;-54
2022/05/22 04:29:52;;;;;;;6.82;4.78;;;;;;;10.88;82.53;101744.13;4971007;28;20033;-53
2022/05/22 04:32:18;;;;;;;10.48;5.55;;;;;;;10.94;82.57;101736.38;4967434;28;20042;-53
2022/05/22 04:34:43;;;;;;;10.55;5.32;;;;;;;11.01;82.59;101739.28;4975848;28;20089;-52
2022/05/22 04:37:09;;;;;;;9.35;5.22;;;;;;;10.96;82.67;101730.91;4970465;28;20023;-52
2022/05/22 04:39:34;;;;;;;9.35;5.88;;;;;;;10.91;82.38;101742.00;4968222;28;20448;-54
2022/05/22 04:41:59;;;;;;;10.40;5.72;;;;;;;10.95;82.34;101742.53;4967521;28;20555;-54
2022/05/22 04:44:25;;;;;;;9.45;7.22;;;;;;;11.04;83.03;101747.78;4971700;28;20031;-52
2022/05/22 04:46:50;;;;;;;14.02;7.30;;;;;;;11.07;83.31;101744.81;4973040;28;20736;-53
2022/05/22 04:49:15;;;;;;;11.35;7.47;;;;;;;11.11;83.50;101748.84;4972055;28;20098;-54
2022/05/22 04:51:40;;;;;;;13.27;7.13;;;;;;;11.13;83.38;101744.22;4970129;28;20031;-55
2022/05/22 04:54:06;;;;;;;15.07;6.85;;;;;;;11.13;83.41;101732.75;4966434;28;20567;-55
2022/05/22 04:56:31;;;;;;;13.80;6.40;;;;;;;11.11;83.52;101737.38;4968034;28;20040;-55
2022/05/22 04:58:57;;;;;;;9.48;6.22;;;;;;;11.16;83.77;101735.09;4969484;28;20030;-55
2022/05/22 05:01:22;;;;;;;10.63;7.00;;;;;;;11.22;83.54;101733.66;4973006;28;20027;-54
2022/05/22 05:03:47;;;;;;;18.48;9.95;;;;;;;11.29;84.04;101732.91;4970313;28;20039;-52
2022/05/22 05:06:13;;;;;;;21.75;11.18;;;;;;;11.29;84.01;101721.44;4970827;28;20245;-52
2022/05/22 05:08:38;;;;;;;21.38;11.18;;;;;;;11.37;84.25;101729.47;4969328;28;20084;-53
2022/05/22 05:11:04;;;;;;;21.15;11.68;;;;;;;11.40;84.06;101726.50;4969919;28;20042;-55
2022/05/22 05:13:29;;;;;;;20.63;10.95;;;;;;;11.48;84.28;101727.38;4962695;28;20031;-53
2022/05/22 05:16:01;;;;;;;20.13;11.45;;;;;;;11.57;84.27;101730.13;4963767;28;20029;-54
2022/05/22 05:18:27;;;;;;;19.67;12.18;;;;;;;11.60;84.25;101730.66;4961436;28;20523;-52
2022/05/22 05:20:54;;;;;;;24.08;12.98;;;;;;;11.62;84.16;101733.16;4965789;28;20468;-54
2022/05/22 05:23:19;;;;;;;23.55;13.43;;;;;;;11.63;83.91;101727.69;4964466;28;20050;-54
2022/05/22 05:25:44;;;;;;;24.58;12.95;;;;;;;11.65;84.06;101733.69;4972830;28;20026;-55
2022/05/22 05:28:10;;;;;;;26.23;13.25;;;;;;;11.71;83.96;101733.03;4964827;28;20050;-55
2022/05/22 05:30:35;;;;;;;18.58;12.90;;;;;;;11.77;84.00;101736.91;4968831;28;20535;-53
2022/05/22 05:33:00;;;;;;;22.38;13.35;;;;;;;11.80;84.29;101739.28;4968197;28;20089;-53
2022/05/22 05:35:26;;;;;;;18.42;13.77;;;;;;;11.88;84.24;101743.84;4964716;28;20041;-56
2022/05/22 05:37:51;;;;;;;22.10;15.25;;;;;;;11.93;84.46;101750.34;4964525;28;20029;-54
2022/05/22 05:40:17;;;;;;;20.90;13.70;;;;;;;11.96;84.06;101747.38;4968439;28;20027;-54
2022/05/22 05:42:42;;;;;;;28.38;14.60;;;;;;;11.99;84.18;101735.56;4973146;28;20054;-52
2022/05/22 05:45:11;;;;;;;21.67;14.70;;;;;;;12.01;83.92;101737.09;4965720;28;20047;-55
2022/05/22 05:47:36;;;;;;;24.42;14.23;;;;;;;12.04;83.94;101736.78;4968676;28;20051;-55
2022/05/22 05:50:02;;;;;;;22.25;13.98;;;;;;;12.11;83.87;101744.94;4969526;28;20042;-52
2022/05/22 05:52:27;;;;;;;23.70;14.02;;;;;;;12.19;83.96;101736.19;4969264;28;20031;-56
2022/05/22 05:54:53;;;;;;;27.30;13.75;;;;;;;12.24;83.89;101744.53;4968187;28;20382;-54
2022/05/22 05:57:18;;;;;;;23.63;13.85;;;;;;;12.32;83.60;101744.56;4968369;28;20034;-53
2022/05/22 05:59:43;;;;;;;21.55;14.13;;;;;;;12.33;83.34;101735.56;4970136;28;20038;-52
2022/05/22 06:02:13;;;;;;;22.20;13.55;;;;;;;12.41;83.29;101741.75;4974007;28;20031;-54
2022/05/22 06:04:39;;;;;;;23.25;13.55;;;;;;;12.45;82.91;101736.97;4975272;28;20451;-55
2022/05/22 06:07:05;;;;;;;19.88;13.70;;;;;;;12.54;82.68;101752.00;4969068;28;20035;-54
2022/05/22 06:09:30;;;;;;;19.17;14.00;;;;;;;12.63;82.46;101742.19;4966848;28;20085;-53
2022/05/22 06:11:55;;;;;;;24.20;14.50;;;;;;;12.72;82.33;101743.88;4968787;28;20484;-55
2022/05/22 06:14:21;;;;;;;23.70;13.93;;;;;;;12.78;82.45;101742.41;4968205;28;20041;-53
2022/05/22 06:16:47;;;;;;;24.08;14.18;;;;;;;12.86;82.35;101743.25;4967013;28;20128;-51
2022/05/22 06:19:12;;;;;;;22.58;13.38;;;;;;;12.94;82.10;101737.09;4969679;28;20177;-55
2022/05/22 06:21:37;;;;;;;23.58;14.20;;;;;;;13.03;81.93;101741.47;4967501;28;20472;-55
2022/05/22 06:24:03;;;;;;;25.02;13.75;;;;;;;13.11;82.10;101728.13;4969340;28;20615;-53
2022/05/22 06:26:28;;;;;;;25.67;13.50;;;;;;;13.21;81.88;101734.16;4969126;28;20043;-52
2022/05/22 06:28:53;;;;;;;23.17;12.80;;;;;;;13.31;81.58;101739.34;4967158;28;20377;-54
2022/05/22 06:31:19;;;;;;;24.80;13.20;;;;;;;13.39;81.45;101746.50;4968970;28;20033;-54
2022/05/22 06:33:44;;;;;;;21.13;11.52;;;;;;;13.44;81.31;101741.50;4969217;28;20035;-52
2022/05/22 06:36:14;;;;;;;26.33;12.35;;;;;;;13.52;80.51;101747.66;4969202;28;20029;-53
2022/05/22 06:41:24;;;;;;;25.73;12.35;;;;;;;13.67;80.45;101753.19;4966086;28;20105;-55
2022/05/22 06:43:53;;;;;;;25.25;12.18;;;;;;;13.69;79.70;101750.34;4967416;28;20034;-56
2022/05/22 06:46:30;;;;;;;20.65;11.57;;;;;;;13.75;79.37;101758.50;4964306;28;20027;-52
2022/05/22 06:48:57;;;;;;;19.67;11.85;;;;;;;13.80;79.37;101756.16;4966880;28;20031;-52
2022/05/22 06:51:22;;;;;;;25.38;11.60;;;;;;;13.88;78.97;101755.31;4968801;28;20038;-53
2022/05/22 06:53:47;;;;;;;21.15;11.70;;;;;;;13.95;78.84;101757.13;4968642;28;20035;-55
2022/05/22 06:56:12;;;;;;;21.42;11.90;;;;;;;14.03;78.54;101758.13;4968118;28;20023;-55
2022/05/22 06:58:38;;;;;;;24.50;11.73;;;;;;;14.14;78.43;101757.75;4970882;28;20022;-53
2022/05/22 07:01:03;;;;;;;23.40;11.55;;;;;;;14.19;78.16;101748.22;4969813;28;20049;-54
2022/05/22 07:03:28;;;;;;;22.98;12.43;;;;;;;14.31;77.96;101747.84;4971611;28;20641;-55
2022/05/22 07:05:54;;;;;;;23.05;11.93;;;;;;;14.37;77.79;101747.97;4972502;28;20456;-53
2022/05/22 07:08:19;;;;;;;21.02;12.50;;;;;;;14.43;77.65;101744.66;4971292;28;20027;-53
2022/05/22 07:13:28;;;;;;;23.17;11.98;;;;;;;14.51;77.20;101747.31;4971661;28;20118;-54
2022/05/22 07:16:11;;;;;;;22.20;12.20;;;;;;;14.60;76.89;101745.41;4971669;28;20114;-54
2022/05/22 07:18:37;;;;;;;23.65;11.77;;;;;;;14.63;76.95;101744.22;4971481;28;20031;-53
2022/05/22 07:21:02;;;;;;;24.20;11.95;;;;;;;14.78;76.62;101750.50;4972105;28;20037;-55
2022/05/22 07:23:27;;;;;;;24.42;11.68;;;;;;;14.78;75.89;101748.66;4971954;28;20037;-55
2022/05/22 07:25:53;;;;;;;21.88;10.75;;;;;;;14.88;75.52;101745.75;4971363;28;20037;-52
2022/05/22 07:28:19;;;;;;;20.48;11.20;;;;;;;14.96;75.41;101735.00;4969310;28;20455;-53
2022/05/22 07:30:44;;;;;;;20.40;11.00;;;;;;;15.04;75.67;101726.94;4971848;28;20070;-52
2022/05/22 07:33:09;;;;;;;16.42;10.77;;;;;;;15.14;75.25;101726.69;4972066;28;20527;-52
2022/05/22 07:35:35;;;;;;;17.38;10.65;;;;;;;15.23;75.03;101724.78;4971469;28;20428;-54
2022/05/22 07:38:01;;;;;;;16.73;10.65;;;;;;;15.33;74.51;101731.56;4969643;28;20032;-52
2022/05/22 07:40:27;;;;;;;23.15;11.20;;;;;;;15.33;74.03;101726.22;4969853;28;20633;-53
2022/05/22 07:42:53;;;;;;;20.48;10.70;;;;;;;15.32;73.26;101737.91;4971320;28;20079;-55
2022/05/22 07:45:18;;;;;;;18.05;11.13;;;;;;;15.42;73.12;101735.84;4971440;28;20050;-53
2022/05/22 07:47:43;;;;;;;20.85;10.35;;;;;;;15.55;73.09;101732.53;4971193;28;20200;-52
2022/05/22 07:50:18;;;;;;;22.55;10.57;;;;;;;15.62;73.04;101732.69;4971437;28;20025;-52
2022/05/22 07:52:44;;;;;;;20.27;10.73;;;;;;;15.72;72.74;101731.41;4971076;28;20030;-51
2022/05/22 07:55:14;;;;;;;17.02;9.57;;;;;;;15.76;72.78;101729.19;4971289;28;20026;-51
2022/05/22 07:57:41;;;;;;;18.73;11.07;;;;;;;15.84;72.15;101725.59;4970658;28;20074;-53
2022/05/22 08:00:08;;;;;;;18.08;9.57;;;;;;;15.85;71.56;101725.41;4971565;28;20026;-55
2022/05/22 08:02:33;;;;;;;19.25;10.15;;;;;;;15.98;71.61;101724.78;4971267;28;20484;-53
2022/05/22 08:04:58;;;;;;;18.13;8.32;;;;;;;16.07;70.94;101721.00;4970309;28;20029;-52
2022/05/22 08:07:24;;;;;;;19.73;8.63;;;;;;;16.11;70.02;101717.75;4968635;28;20030;-54
2022/05/22 08:09:51;;;;;;;18.45;8.02;;;;;;;16.21;69.94;101708.63;4970588;28;20073;-53
2022/05/22 08:12:17;;;;;;;19.33;8.60;;;;;;;16.26;69.13;101715.06;4970926;28;20554;-52
2022/05/22 08:14:44;;;;;;;14.38;4.30;;;;;;;16.34;67.94;101714.13;4971936;28;20054;-55
2022/05/22 08:17:10;;;;;;;13.45;5.80;;;;;;;16.42;67.13;101714.84;4970462;28;20023;-54
2022/05/22 08:19:35;;;;;;;13.43;5.22;;;;;;;16.57;66.94;101709.47;4970067;28;20548;-53
2022/05/22 08:22:01;;;;;;;14.07;5.22;;;;;;;16.66;66.58;101705.69;4968150;28;20022;-53
2022/05/22 08:24:26;;;;;;;11.98;5.20;;;;;;;16.73;65.99;101701.22;4970899;28;20062;-55
2022/05/22 08:26:51;;;;;;;24.77;4.75;;;;;;;16.77;65.18;101695.47;4970124;28;20053;-54
2022/05/22 08:29:16;;;;;;;15.02;4.25;;;;;;;16.84;63.85;101691.84;4971391;28;20089;-55
2022/05/22 08:31:42;;;;;;;12.40;5.32;;;;;;;16.93;63.54;101689.88;4970765;28;20422;-55
2022/05/22 08:34:07;;;;;;;15.85;5.65;;;;;;;17.07;63.51;101685.47;4970296;28;20035;-54
2022/05/22 08:36:33;;;;;;;12.63;4.25;;;;;;;17.09;61.77;101680.75;4970571;28;20047;-55
2022/05/22 08:38:58;;;;;;;11.60;4.25;;;;;;;17.12;61.07;101673.13;4969924;28;20204;-55
2022/05/22 08:41:32;;;;;;;11.65;4.78;;;;;;;17.22;61.75;101659.38;4971087;28;20038;-55
2022/05/22 08:44:08;;;;;;;10.85;4.93;;;;;;;17.34;61.17;101660.47;4967026;28;20100;-55
2022/05/22 08:46:52;;;;;;;9.70;4.32;;;;;;;17.45;60.69;101670.72;4968456;28;20039;-55
2022/05/22 08:49:47;;;;;;;12.18;4.70;;;;;;;17.61;60.37;101659.66;4967754;28;20053;-55
2022/05/22 08:52:18;;;;;;;12.63;5.72;;;;;;;17.72;60.35;101658.31;4970593;28;20407;-54
2022/05/22 08:54:50;;;;;;;12.40;5.32;;;;;;;17.69;59.53;101660.56;4969882;28;20019;-55
2022/05/22 09:00:15;;;;;;;12.52;5.50;;;;;;;17.93;59.68;101636.75;4967532;28;20092;-55
2022/05/22 09:02:52;;;;;;;11.18;6.22;;;;;;;17.96;58.88;101640.88;4968301;28;20432;-55
2022/05/22 09:05:21;;;;;;;14.73;7.43;;;;;;;18.03;58.92;101632.84;4970175;28;20444;-55
2022/05/22 09:07:55;;;;;;;15.25;7.80;;;;;;;18.17;58.66;101630.00;4967324;28;20027;-55
2022/05/22 09:10:37;;;;;;;17.52;7.97;;;;;;;18.30;58.62;101636.47;4968548;28;20031;-54
2022/05/22 09:13:32;;;;;;;17.25;7.57;;;;;;;18.37;58.40;101640.00;4964279;28;20023;-54
2022/05/22 09:16:39;;;;;;;18.25;7.85;;;;;;;18.48;58.56;101620.56;4970473;28;20019;-52
2022/05/22 09:19:10;;;;;;;20.05;8.32;;;;;;;18.69;58.01;101633.06;4947176;28;20130;-55
2022/05/22 09:21:56;;;;;;;14.15;8.35;;;;;;;18.84;57.97;101621.09;4966903;28;20030;-55
2022/05/22 09:24:47;;;;;;;14.02;8.63;;;;;;;18.87;57.27;101623.38;4969805;28;20039;-55
2022/05/22 09:27:21;;;;;;;16.75;8.82;;;;;;;19.04;57.46;101629.16;4963265;28;20061;-55
2022/05/22 09:29:52;;;;;;;17.67;9.48;;;;;;;19.16;57.54;101615.91;4964372;28;20062;-54
2022/05/22 09:32:32;;;;;;;19.65;9.25;;;;;;;19.35;57.48;101615.06;4969585;28;20489;-53
2022/05/22 09:35:37;;;;;;;18.88;8.63;;;;;;;19.43;56.87;101609.47;4969853;28;20026;-54
2022/05/22 09:38:22;;;;;;;19.27;8.50;;;;;;;19.44;56.51;101608.44;4964832;28;20102;-55
2022/05/22 09:40:50;;;;;;;19.23;9.25;;;;;;;19.31;55.85;101599.53;4968079;28;20063;-54
2022/05/22 09:43:50;;;;;;;15.55;9.13;;;;;;;19.31;55.98;101604.91;4969573;28;20037;-54
2022/05/22 09:46:27;;;;;;;18.02;7.68;;;;;;;19.20;55.79;101609.06;4966993;28;20093;-53
2022/05/22 09:49:07;;;;;;;13.00;7.20;;;;;;;19.41;55.61;101599.94;4969351;28;20092;-55
2022/05/22 09:51:57;;;;;;;15.25;7.25;;;;;;;19.69;55.22;101588.91;4968072;28;20481;-53
2022/05/22 09:54:39;;;;;;;15.75;7.43;;;;;;;19.71;53.82;101589.53;4967257;28;20105;-54
2022/05/22 09:57:17;;;;;;;20.63;7.43;;;;;;;19.77;53.67;101597.59;4968801;28;20180;-55
2022/05/22 09:59:59;;;;;;;18.85;7.93;;;;;;;19.75;53.78;101593.44;4969221;28;20026;-56
2022/05/22 10:02:39;;;;;;;16.27;7.20;;;;;;;19.75;53.71;101599.66;4965981;28;20035;-56
2022/05/22 10:05:26;;;;;;;17.52;7.45;;;;;;;19.86;53.61;101605.44;4968893;28;20569;-54
2022/05/22 10:08:17;;;;;;;14.80;7.10;;;;;;;19.77;52.62;101615.63;4968752;28;20328;-53
2022/05/22 10:11:03;;;;;;;15.70;8.00;;;;;;;19.74;52.49;101605.28;4969473;28;20103;-55
2022/05/22 10:13:37;;;;;;;16.50;7.93;;;;;;;19.61;52.14;101599.91;4968751;28;20035;-55
2022/05/22 10:16:32;;;;;;;16.80;7.50;;;;;;;19.60;52.20;101598.25;4966474;28;20146;-55
2022/05/22 10:19:14;;;;;;;14.07;7.60;;;;;;;19.45;52.39;101598.47;4943432;28;20560;-53
2022/05/22 10:22:02;;;;;;;17.65;8.00;;;;;;;19.44;52.93;101600.34;4969008;28;20066;-54
2022/05/22 10:24:45;;;;;;;13.18;7.20;;;;;;;19.56;53.83;101595.16;4970039;28;20026;-52
2022/05/22 10:27:41;;;;;;;13.95;7.63;;;;;;;19.47;53.17;101594.53;4959525;28;20476;-55
2022/05/22 10:30:17;;;;;;;13.82;7.75;;;;;;;19.51;53.42;101594.94;4968563;28;20110;-55
2022/05/22 10:32:44;;;;;;;14.43;8.40;;;;;;;19.50;53.17;101583.31;4973362;28;20043;-54
2022/05/22 10:35:24;;;;;;;16.08;8.20;;;;;;;19.63;52.85;101581.66;4972202;28;20492;-55
2022/05/22 10:37:52;;;;;;;15.90;8.23;;;;;;;19.66;52.65;101576.69;4965787;28;20038;-55
2022/05/22 10:40:21;;;;;;;16.88;8.00;;;;;;;19.66;53.12;101573.13;4971240;28;20484;-54
2022/05/22 10:42:51;;;;;;;18.20;8.90;;;;;;;19.60;52.56;101566.75;4973044;28;20019;-54
2022/05/22 10:45:22;;;;;;;17.95;8.65;;;;;;;19.69;52.79;101572.75;4972708;28;20029;-54
2022/05/22 10:47:49;;;;;;;16.98;7.97;;;;;;;19.84;52.96;101567.91;4970622;28;20066;-55
2022/05/22 10:50:22;;;;;;;15.60;8.40;;;;;;;19.88;52.79;101561.03;4972022;28;20033;-55
2022/05/22 10:52:48;;;;;;;13.38;7.93;;;;;;;19.77;51.53;101551.75;4966236;28;20111;-56
2022/05/22 10:55:21;;;;;;;17.20;7.82;;;;;;;19.71;50.98;101549.09;4970433;28;20039;-55
2022/05/22 10:57:55;;;;;;;19.35;7.30;;;;;;;19.99;51.81;101535.28;4969522;28;20046;-53
2022/05/22 11:00:21;;;;;;;16.60;7.18;;;;;;;19.97;50.57;101540.91;4977100;28;20031;-54
2022/05/22 11:02:46;;;;;;;13.75;5.95;;;;;;;20.26;50.84;101534.09;4968829;28;20026;-54
2022/05/22 11:05:49;;;;;;;13.52;6.38;;;;;;;20.53;51.41;101529.38;4968769;28;20174;-55
2022/05/22 11:08:24;;;;;;;12.68;5.57;;;;;;;20.77;49.62;101529.56;4963407;28;20042;-55
2022/05/22 11:10:50;;;;;;;13.27;6.50;;;;;;;20.87;48.57;101522.63;4971364;28;20030;-54
2022/05/22 11:13:22;;;;;;;16.75;6.28;;;;;;;20.92;48.95;101522.78;4972741;28;20030;-54
2022/05/22 11:15:47;;;;;;;14.82;6.40;;;;;;;21.01;48.81;101528.72;4969037;28;20026;-54
2022/05/22 11:18:21;;;;;;;13.02;6.72;;;;;;;21.08;48.80;101529.47;4970690;28;20489;-52
2022/05/22 11:21:14;;;;;;;10.57;6.40;;;;;;;21.22;48.68;101520.19;4972478;28;20425;-52
2022/05/22 11:24:01;;;;;;;12.15;4.97;;;;;;;21.08;47.32;101525.94;4972706;28;20519;-56
2022/05/22 11:26:52;;;;;;;10.20;5.70;;;;;;;20.98;46.79;101519.19;4969034;28;20046;-54
2022/05/22 11:29:20;;;;;;;12.80;6.55;;;;;;;20.93;47.34;101502.00;4970919;28;20034;-52
2022/05/22 11:32:15;;;;;;;13.38;6.65;;;;;;;21.10;46.86;101510.34;4971089;28;20031;-55
2022/05/22 11:35:00;;;;;;;15.20;6.97;;;;;;;21.24;47.22;101498.41;4967901;28;20500;-56
2022/05/22 11:37:31;;;;;;;13.68;7.18;;;;;;;21.27;47.31;101504.16;4971357;28;20373;-56
2022/05/22 11:40:32;;;;;;;12.10;7.13;;;;;;;21.18;46.98;101492.00;4969912;28;20023;-55
2022/05/22 11:43:03;;;;;;;14.70;7.28;;;;;;;20.98;46.09;101483.25;4969035;28;20030;-54